sensor_id;sensor_type;location;lat;lon;timestamp;P1;durP1;ratioP1;P2;durP2;ratioP2
59147;SDS011;44930;52.878;6.168;2023-04-29T00:00:40;36.90;;;24.73;;
59147;SDS011;44930;52.878;6.168;2023-04-29T00:03:05;36.15;;;25.02;;
59147;SDS011;44930;52.878;6.168;2023-04-29T00:05:32;39.38;;;25.58;;
59147;SDS011;44930;52.878;6.168;2023-04-29T00:07:57;35.20;;;24.00;;
59147;SDS011;44930;52.878;6.168;2023-04-29T00:10:23;40.83;;;23.92;;
59147;SDS011;44930;52.878;6.168;2023-04-29T00:12:48;38.08;;;24.00;;
59147;SDS011;44930;52.878;6.168;2023-04-29T00:15:15;37.92;;;24.80;;
59147;SDS011;44930;52.878;6.168;2023-04-29T00:17:41;36.97;;;24.63;;
59147;SDS011;44930;52.878;6.168;2023-04-29T00:20:07;44.45;;;25.08;;
59147;SDS011;44930;52.878;6.168;2023-04-29T00:22:34;36.75;;;25.25;;
59147;SDS011;44930;52.878;6.168;2023-04-29T00:24:59;47.65;;;26.10;;
59147;SDS011;44930;52.878;6.168;2023-04-29T00:27:25;44.15;;;25.50;;
59147;SDS011;44930;52.878;6.168;2023-04-29T00:29:52;36.50;;;23.98;;
59147;SDS011;44930;52.878;6.168;2023-04-29T00:32:18;37.70;;;23.73;;
59147;SDS011;44930;52.878;6.168;2023-04-29T00:34:44;41.20;;;26.25;;
59147;SDS011;44930;52.878;6.168;2023-04-29T00:37:10;42.70;;;25.58;;
59147;SDS011;44930;52.878;6.168;2023-04-29T00:39:36;42.20;;;26.83;;
59147;SDS011;44930;52.878;6.168;2023-04-29T00:42:01;42.85;;;25.60;;
59147;SDS011;44930;52.878;6.168;2023-04-29T00:44:28;44.10;;;26.63;;
59147;SDS011;44930;52.878;6.168;2023-04-29T00:46:53;47.55;;;24.88;;
59147;SDS011;44930;52.878;6.168;2023-04-29T00:49:19;44.20;;;25.80;;
59147;SDS011;44930;52.878;6.168;2023-04-29T00:51:45;38.72;;;23.98;;
59147;SDS011;44930;52.878;6.168;2023-04-29T00:54:11;42.38;;;24.17;;
59147;SDS011;44930;52.878;6.168;2023-04-29T00:56:38;41.20;;;25.00;;
59147;SDS011;44930;52.878;6.168;2023-04-29T00:59:07;42.53;;;25.20;;
59147;SDS011;44930;52.878;6.168;2023-04-29T01:01:34;47.30;;;25.23;;
59147;SDS011;44930;52.878;6.168;2023-04-29T01:04:00;39.55;;;23.83;;
59147;SDS011;44930;52.878;6.168;2023-04-29T01:07:15;37.35;;;24.08;;
59147;SDS011;44930;52.878;6.168;2023-04-29T01:09:42;38.95;;;23.63;;
59147;SDS011;44930;52.878;6.168;2023-04-29T01:15:26;38.10;;;24.85;;
59147;SDS011;44930;52.878;6.168;2023-04-29T01:18:24;40.05;;;24.05;;
59147;SDS011;44930;52.878;6.168;2023-04-29T01:20:54;44.40;;;24.33;;
59147;SDS011;44930;52.878;6.168;2023-04-29T01:23:28;38.67;;;24.13;;
59147;SDS011;44930;52.878;6.168;2023-04-29T01:25:54;42.08;;;26.05;;
59147;SDS011;44930;52.878;6.168;2023-04-29T01:34:10;50.22;;;25.60;;
59147;SDS011;44930;52.878;6.168;2023-04-29T01:39:24;38.60;;;24.40;;
59147;SDS011;44930;52.878;6.168;2023-04-29T01:42:21;38.97;;;23.70;;
59147;SDS011;44930;52.878;6.168;2023-04-29T01:44:53;37.58;;;24.27;;
59147;SDS011;44930;52.878;6.168;2023-04-29T01:47:19;42.42;;;23.38;;
59147;SDS011;44930;52.878;6.168;2023-04-29T01:49:45;41.88;;;22.80;;
59147;SDS011;44930;52.878;6.168;2023-04-29T01:52:11;35.53;;;22.88;;
59147;SDS011;44930;52.878;6.168;2023-04-29T01:54:37;40.38;;;23.08;;
59147;SDS011;44930;52.878;6.168;2023-04-29T01:57:03;36.35;;;22.73;;
59147;SDS011;44930;52.878;6.168;2023-04-29T01:59:29;41.25;;;23.90;;
59147;SDS011;44930;52.878;6.168;2023-04-29T02:01:54;34.55;;;22.75;;
59147;SDS011;44930;52.878;6.168;2023-04-29T02:04:23;41.72;;;22.63;;
59147;SDS011;44930;52.878;6.168;2023-04-29T02:06:49;38.03;;;22.10;;
59147;SDS011;44930;52.878;6.168;2023-04-29T02:09:18;36.58;;;23.17;;
59147;SDS011;44930;52.878;6.168;2023-04-29T02:11:44;34.92;;;21.98;;
59147;SDS011;44930;52.878;6.168;2023-04-29T02:14:09;38.17;;;21.27;;
59147;SDS011;44930;52.878;6.168;2023-04-29T02:16:36;39.15;;;21.60;;
59147;SDS011;44930;52.878;6.168;2023-04-29T02:19:02;38.00;;;23.17;;
59147;SDS011;44930;52.878;6.168;2023-04-29T02:21:28;35.17;;;20.13;;
59147;SDS011;44930;52.878;6.168;2023-04-29T02:23:53;36.85;;;22.42;;
59147;SDS011;44930;52.878;6.168;2023-04-29T02:26:19;34.42;;;21.17;;
59147;SDS011;44930;52.878;6.168;2023-04-29T02:28:44;39.83;;;21.65;;
59147;SDS011;44930;52.878;6.168;2023-04-29T02:31:10;40.08;;;20.92;;
59147;SDS011;44930;52.878;6.168;2023-04-29T02:33:36;36.55;;;22.20;;
59147;SDS011;44930;52.878;6.168;2023-04-29T02:36:02;31.25;;;21.90;;
59147;SDS011;44930;52.878;6.168;2023-04-29T02:38:27;32.00;;;21.05;;
59147;SDS011;44930;52.878;6.168;2023-04-29T02:40:53;37.75;;;20.98;;
59147;SDS011;44930;52.878;6.168;2023-04-29T02:43:19;34.88;;;20.73;;
59147;SDS011;44930;52.878;6.168;2023-04-29T02:45:44;40.40;;;24.48;;
59147;SDS011;44930;52.878;6.168;2023-04-29T02:48:10;35.00;;;21.23;;
59147;SDS011;44930;52.878;6.168;2023-04-29T02:50:35;28.45;;;20.55;;
59147;SDS011;44930;52.878;6.168;2023-04-29T02:53:01;32.15;;;21.42;;
59147;SDS011;44930;52.878;6.168;2023-04-29T02:55:27;31.08;;;19.98;;
59147;SDS011;44930;52.878;6.168;2023-04-29T02:57:52;32.05;;;19.73;;
59147;SDS011;44930;52.878;6.168;2023-04-29T03:00:18;30.38;;;20.08;;
59147;SDS011;44930;52.878;6.168;2023-04-29T03:02:44;38.10;;;19.73;;
59147;SDS011;44930;52.878;6.168;2023-04-29T03:05:09;30.05;;;20.08;;
59147;SDS011;44930;52.878;6.168;2023-04-29T03:07:35;32.50;;;20.40;;
59147;SDS011;44930;52.878;6.168;2023-04-29T03:10:01;27.42;;;20.48;;
59147;SDS011;44930;52.878;6.168;2023-04-29T03:12:26;32.83;;;19.60;;
59147;SDS011;44930;52.878;6.168;2023-04-29T03:14:52;30.25;;;19.90;;
59147;SDS011;44930;52.878;6.168;2023-04-29T03:17:18;32.80;;;21.45;;
59147;SDS011;44930;52.878;6.168;2023-04-29T03:19:43;31.42;;;21.25;;
59147;SDS011;44930;52.878;6.168;2023-04-29T03:22:09;32.58;;;22.83;;
59147;SDS011;44930;52.878;6.168;2023-04-29T03:24:36;32.30;;;19.92;;
59147;SDS011;44930;52.878;6.168;2023-04-29T03:27:02;37.33;;;19.27;;
59147;SDS011;44930;52.878;6.168;2023-04-29T03:29:28;30.58;;;19.52;;
59147;SDS011;44930;52.878;6.168;2023-04-29T03:31:54;35.67;;;20.80;;
59147;SDS011;44930;52.878;6.168;2023-04-29T03:34:21;30.23;;;21.23;;
59147;SDS011;44930;52.878;6.168;2023-04-29T03:36:46;36.03;;;21.83;;
59147;SDS011;44930;52.878;6.168;2023-04-29T03:39:12;44.03;;;23.13;;
59147;SDS011;44930;52.878;6.168;2023-04-29T03:41:37;30.27;;;20.10;;
59147;SDS011;44930;52.878;6.168;2023-04-29T03:44:03;35.00;;;21.73;;
59147;SDS011;44930;52.878;6.168;2023-04-29T03:46:29;37.92;;;22.00;;
59147;SDS011;44930;52.878;6.168;2023-04-29T03:48:55;36.33;;;20.95;;
59147;SDS011;44930;52.878;6.168;2023-04-29T03:51:22;39.10;;;22.92;;
59147;SDS011;44930;52.878;6.168;2023-04-29T03:53:48;35.97;;;21.27;;
59147;SDS011;44930;52.878;6.168;2023-04-29T03:56:14;38.67;;;23.08;;
59147;SDS011;44930;52.878;6.168;2023-04-29T03:58:40;36.67;;;23.25;;
59147;SDS011;44930;52.878;6.168;2023-04-29T04:01:05;39.38;;;22.52;;
59147;SDS011;44930;52.878;6.168;2023-04-29T04:03:31;41.50;;;23.83;;
59147;SDS011;44930;52.878;6.168;2023-04-29T04:05:57;38.42;;;22.25;;
59147;SDS011;44930;52.878;6.168;2023-04-29T04:08:22;40.60;;;22.73;;
59147;SDS011;44930;52.878;6.168;2023-04-29T04:10:48;34.65;;;23.10;;
59147;SDS011;44930;52.878;6.168;2023-04-29T04:13:13;41.28;;;23.45;;
59147;SDS011;44930;52.878;6.168;2023-04-29T04:15:39;38.72;;;22.83;;
59147;SDS011;44930;52.878;6.168;2023-04-29T04:18:06;45.00;;;22.88;;
59147;SDS011;44930;52.878;6.168;2023-04-29T04:20:32;40.50;;;22.25;;
59147;SDS011;44930;52.878;6.168;2023-04-29T04:22:58;40.22;;;22.17;;
59147;SDS011;44930;52.878;6.168;2023-04-29T04:25:23;38.60;;;21.42;;
59147;SDS011;44930;52.878;6.168;2023-04-29T04:27:49;34.72;;;21.23;;
59147;SDS011;44930;52.878;6.168;2023-04-29T04:30:15;37.00;;;21.75;;
59147;SDS011;44930;52.878;6.168;2023-04-29T04:32:40;35.83;;;20.77;;
59147;SDS011;44930;52.878;6.168;2023-04-29T04:35:06;44.03;;;22.60;;
59147;SDS011;44930;52.878;6.168;2023-04-29T04:37:32;37.78;;;20.92;;
59147;SDS011;44930;52.878;6.168;2023-04-29T04:39:58;37.70;;;21.38;;
59147;SDS011;44930;52.878;6.168;2023-04-29T04:42:23;38.22;;;19.50;;
59147;SDS011;44930;52.878;6.168;2023-04-29T04:44:49;31.42;;;20.25;;
59147;SDS011;44930;52.878;6.168;2023-04-29T04:47:15;32.28;;;19.58;;
59147;SDS011;44930;52.878;6.168;2023-04-29T04:49:41;34.05;;;20.02;;
59147;SDS011;44930;52.878;6.168;2023-04-29T04:52:08;31.02;;;17.85;;
59147;SDS011;44930;52.878;6.168;2023-04-29T04:54:33;39.95;;;19.20;;
59147;SDS011;44930;52.878;6.168;2023-04-29T04:56:59;33.35;;;18.15;;
59147;SDS011;44930;52.878;6.168;2023-04-29T04:59:25;29.40;;;18.13;;
59147;SDS011;44930;52.878;6.168;2023-04-29T05:01:50;28.17;;;18.58;;
59147;SDS011;44930;52.878;6.168;2023-04-29T05:04:16;26.70;;;16.42;;
59147;SDS011;44930;52.878;6.168;2023-04-29T05:06:41;29.75;;;17.10;;
59147;SDS011;44930;52.878;6.168;2023-04-29T05:09:07;29.75;;;16.75;;
59147;SDS011;44930;52.878;6.168;2023-04-29T05:11:33;25.42;;;15.38;;
59147;SDS011;44930;52.878;6.168;2023-04-29T05:13:58;29.35;;;14.95;;
59147;SDS011;44930;52.878;6.168;2023-04-29T05:16:24;23.75;;;15.18;;
59147;SDS011;44930;52.878;6.168;2023-04-29T05:18:50;22.63;;;14.25;;
59147;SDS011;44930;52.878;6.168;2023-04-29T05:21:15;21.58;;;13.13;;
59147;SDS011;44930;52.878;6.168;2023-04-29T05:23:41;20.33;;;12.35;;
59147;SDS011;44930;52.878;6.168;2023-04-29T05:26:07;23.92;;;12.82;;
59147;SDS011;44930;52.878;6.168;2023-04-29T05:28:32;25.55;;;12.32;;
59147;SDS011;44930;52.878;6.168;2023-04-29T05:30:58;25.50;;;12.23;;
59147;SDS011;44930;52.878;6.168;2023-04-29T05:33:24;19.40;;;12.40;;
59147;SDS011;44930;52.878;6.168;2023-04-29T05:35:49;20.27;;;12.27;;
59147;SDS011;44930;52.878;6.168;2023-04-29T05:38:15;21.17;;;10.88;;
59147;SDS011;44930;52.878;6.168;2023-04-29T05:40:40;16.75;;;10.77;;
59147;SDS011;44930;52.878;6.168;2023-04-29T05:43:06;17.88;;;11.82;;
59147;SDS011;44930;52.878;6.168;2023-04-29T05:45:31;18.27;;;10.40;;
59147;SDS011;44930;52.878;6.168;2023-04-29T05:47:57;20.02;;;9.95;;
59147;SDS011;44930;52.878;6.168;2023-04-29T05:50:23;20.90;;;11.60;;
59147;SDS011;44930;52.878;6.168;2023-04-29T05:52:48;16.73;;;10.43;;
59147;SDS011;44930;52.878;6.168;2023-04-29T05:55:15;17.25;;;10.07;;
59147;SDS011;44930;52.878;6.168;2023-04-29T05:57:41;17.02;;;9.10;;
59147;SDS011;44930;52.878;6.168;2023-04-29T06:00:07;16.73;;;9.88;;
59147;SDS011;44930;52.878;6.168;2023-04-29T06:02:33;20.00;;;9.60;;
59147;SDS011;44930;52.878;6.168;2023-04-29T06:04:59;18.83;;;9.77;;
59147;SDS011;44930;52.878;6.168;2023-04-29T06:07:25;18.52;;;9.90;;
59147;SDS011;44930;52.878;6.168;2023-04-29T06:09:51;13.13;;;9.27;;
59147;SDS011;44930;52.878;6.168;2023-04-29T06:12:17;14.93;;;9.07;;
59147;SDS011;44930;52.878;6.168;2023-04-29T06:14:42;18.75;;;8.85;;
59147;SDS011;44930;52.878;6.168;2023-04-29T06:17:08;16.95;;;9.88;;
59147;SDS011;44930;52.878;6.168;2023-04-29T06:19:34;17.67;;;9.52;;
59147;SDS011;44930;52.878;6.168;2023-04-29T06:22:00;18.17;;;8.98;;
59147;SDS011;44930;52.878;6.168;2023-04-29T06:24:25;15.23;;;10.05;;
59147;SDS011;44930;52.878;6.168;2023-04-29T06:26:51;18.33;;;8.35;;
59147;SDS011;44930;52.878;6.168;2023-04-29T06:29:16;13.85;;;8.57;;
59147;SDS011;44930;52.878;6.168;2023-04-29T06:31:42;17.98;;;9.00;;
59147;SDS011;44930;52.878;6.168;2023-04-29T06:34:07;13.07;;;8.68;;
59147;SDS011;44930;52.878;6.168;2023-04-29T06:36:33;15.82;;;8.90;;
59147;SDS011;44930;52.878;6.168;2023-04-29T06:38:59;13.68;;;7.93;;
59147;SDS011;44930;52.878;6.168;2023-04-29T06:41:24;13.88;;;8.15;;
59147;SDS011;44930;52.878;6.168;2023-04-29T06:43:50;12.90;;;8.10;;
59147;SDS011;44930;52.878;6.168;2023-04-29T06:46:16;15.48;;;7.90;;
59147;SDS011;44930;52.878;6.168;2023-04-29T06:48:41;15.80;;;8.40;;
59147;SDS011;44930;52.878;6.168;2023-04-29T06:51:07;13.75;;;8.60;;
59147;SDS011;44930;52.878;6.168;2023-04-29T06:53:33;15.68;;;9.02;;
59147;SDS011;44930;52.878;6.168;2023-04-29T06:55:58;17.02;;;9.60;;
59147;SDS011;44930;52.878;6.168;2023-04-29T06:58:24;10.88;;;7.55;;
59147;SDS011;44930;52.878;6.168;2023-04-29T07:00:50;19.73;;;10.02;;
59147;SDS011;44930;52.878;6.168;2023-04-29T07:03:16;13.93;;;8.40;;
59147;SDS011;44930;52.878;6.168;2023-04-29T07:05:42;16.95;;;8.73;;
59147;SDS011;44930;52.878;6.168;2023-04-29T07:08:12;13.18;;;7.90;;
59147;SDS011;44930;52.878;6.168;2023-04-29T07:10:38;16.75;;;8.05;;
59147;SDS011;44930;52.878;6.168;2023-04-29T07:13:05;14.23;;;8.50;;
59147;SDS011;44930;52.878;6.168;2023-04-29T07:15:34;13.93;;;8.20;;
59147;SDS011;44930;52.878;6.168;2023-04-29T07:18:03;15.77;;;7.53;;
59147;SDS011;44930;52.878;6.168;2023-04-29T07:20:29;20.05;;;8.75;;
59147;SDS011;44930;52.878;6.168;2023-04-29T07:22:55;13.05;;;7.95;;
59147;SDS011;44930;52.878;6.168;2023-04-29T07:25:21;13.15;;;8.07;;
59147;SDS011;44930;52.878;6.168;2023-04-29T07:27:46;10.60;;;8.45;;
59147;SDS011;44930;52.878;6.168;2023-04-29T07:30:12;14.13;;;8.68;;
59147;SDS011;44930;52.878;6.168;2023-04-29T07:32:38;14.63;;;8.43;;
59147;SDS011;44930;52.878;6.168;2023-04-29T07:35:04;16.30;;;9.93;;
59147;SDS011;44930;52.878;6.168;2023-04-29T07:37:29;18.52;;;8.07;;
59147;SDS011;44930;52.878;6.168;2023-04-29T07:39:55;14.15;;;8.25;;
59147;SDS011;44930;52.878;6.168;2023-04-29T07:42:20;15.60;;;7.93;;
59147;SDS011;44930;52.878;6.168;2023-04-29T07:44:46;11.98;;;8.07;;
59147;SDS011;44930;52.878;6.168;2023-04-29T07:47:12;13.25;;;7.82;;
59147;SDS011;44930;52.878;6.168;2023-04-29T07:49:37;11.30;;;7.15;;
59147;SDS011;44930;52.878;6.168;2023-04-29T07:52:03;21.67;;;9.93;;
59147;SDS011;44930;52.878;6.168;2023-04-29T07:54:30;12.15;;;8.52;;
59147;SDS011;44930;52.878;6.168;2023-04-29T07:56:56;14.43;;;8.27;;
59147;SDS011;44930;52.878;6.168;2023-04-29T07:59:22;16.23;;;8.25;;
59147;SDS011;44930;52.878;6.168;2023-04-29T08:01:48;11.75;;;8.15;;
59147;SDS011;44930;52.878;6.168;2023-04-29T08:04:13;12.07;;;8.32;;
59147;SDS011;44930;52.878;6.168;2023-04-29T08:06:39;12.02;;;7.55;;
59147;SDS011;44930;52.878;6.168;2023-04-29T08:09:05;13.88;;;7.93;;
59147;SDS011;44930;52.878;6.168;2023-04-29T08:11:31;12.07;;;7.38;;
59147;SDS011;44930;52.878;6.168;2023-04-29T08:13:57;11.07;;;6.72;;
59147;SDS011;44930;52.878;6.168;2023-04-29T08:16:24;13.23;;;7.20;;
59147;SDS011;44930;52.878;6.168;2023-04-29T08:18:50;13.35;;;7.72;;
59147;SDS011;44930;52.878;6.168;2023-04-29T08:21:16;15.43;;;8.10;;
59147;SDS011;44930;52.878;6.168;2023-04-29T08:23:42;15.32;;;7.65;;
59147;SDS011;44930;52.878;6.168;2023-04-29T08:26:09;11.55;;;7.35;;
59147;SDS011;44930;52.878;6.168;2023-04-29T08:28:35;14.20;;;7.05;;
59147;SDS011;44930;52.878;6.168;2023-04-29T08:31:00;12.45;;;7.93;;
59147;SDS011;44930;52.878;6.168;2023-04-29T08:33:26;13.90;;;7.38;;
59147;SDS011;44930;52.878;6.168;2023-04-29T08:35:58;13.40;;;8.18;;
59147;SDS011;44930;52.878;6.168;2023-04-29T08:38:25;12.52;;;7.45;;
59147;SDS011;44930;52.878;6.168;2023-04-29T08:40:52;13.02;;;6.85;;
59147;SDS011;44930;52.878;6.168;2023-04-29T08:43:17;13.40;;;7.18;;
59147;SDS011;44930;52.878;6.168;2023-04-29T08:45:45;12.43;;;8.15;;
59147;SDS011;44930;52.878;6.168;2023-04-29T08:48:13;11.32;;;7.70;;
59147;SDS011;44930;52.878;6.168;2023-04-29T08:50:40;13.70;;;8.48;;
59147;SDS011;44930;52.878;6.168;2023-04-29T08:53:06;15.60;;;7.47;;
59147;SDS011;44930;52.878;6.168;2023-04-29T08:55:54;15.10;;;7.15;;
59147;SDS011;44930;52.878;6.168;2023-04-29T08:58:19;14.95;;;8.23;;
59147;SDS011;44930;52.878;6.168;2023-04-29T09:00:46;17.27;;;6.55;;
59147;SDS011;44930;52.878;6.168;2023-04-29T09:03:13;12.63;;;6.75;;
59147;SDS011;44930;52.878;6.168;2023-04-29T09:05:52;11.27;;;6.32;;
59147;SDS011;44930;52.878;6.168;2023-04-29T09:08:20;16.70;;;6.72;;
59147;SDS011;44930;52.878;6.168;2023-04-29T09:10:47;12.63;;;6.57;;
59147;SDS011;44930;52.878;6.168;2023-04-29T09:13:24;12.25;;;6.45;;
59147;SDS011;44930;52.878;6.168;2023-04-29T09:15:54;11.82;;;6.68;;
59147;SDS011;44930;52.878;6.168;2023-04-29T09:21:12;13.48;;;6.40;;
59147;SDS011;44930;52.878;6.168;2023-04-29T09:23:39;12.43;;;6.93;;
59147;SDS011;44930;52.878;6.168;2023-04-29T09:26:04;15.32;;;6.95;;
59147;SDS011;44930;52.878;6.168;2023-04-29T09:28:30;10.88;;;6.93;;
59147;SDS011;44930;52.878;6.168;2023-04-29T09:30:56;9.73;;;6.88;;
59147;SDS011;44930;52.878;6.168;2023-04-29T09:33:21;11.48;;;7.10;;
59147;SDS011;44930;52.878;6.168;2023-04-29T09:35:47;11.05;;;6.97;;
59147;SDS011;44930;52.878;6.168;2023-04-29T09:38:13;9.40;;;6.40;;
59147;SDS011;44930;52.878;6.168;2023-04-29T09:40:40;10.50;;;6.13;;
59147;SDS011;44930;52.878;6.168;2023-04-29T09:43:11;10.43;;;6.68;;
59147;SDS011;44930;52.878;6.168;2023-04-29T09:45:42;8.60;;;6.32;;
59147;SDS011;44930;52.878;6.168;2023-04-29T09:48:09;8.95;;;6.57;;
59147;SDS011;44930;52.878;6.168;2023-04-29T09:50:35;11.25;;;6.68;;
59147;SDS011;44930;52.878;6.168;2023-04-29T09:53:08;14.60;;;6.40;;
59147;SDS011;44930;52.878;6.168;2023-04-29T09:55:35;11.10;;;6.35;;
59147;SDS011;44930;52.878;6.168;2023-04-29T09:58:01;11.27;;;5.93;;
59147;SDS011;44930;52.878;6.168;2023-04-29T10:00:30;11.35;;;6.60;;
59147;SDS011;44930;52.878;6.168;2023-04-29T10:02:58;10.70;;;5.70;;
59147;SDS011;44930;52.878;6.168;2023-04-29T10:05:26;12.27;;;6.78;;
59147;SDS011;44930;52.878;6.168;2023-04-29T10:07:53;12.75;;;5.80;;
59147;SDS011;44930;52.878;6.168;2023-04-29T10:10:20;9.85;;;5.53;;
59147;SDS011;44930;52.878;6.168;2023-04-29T10:12:48;12.13;;;6.00;;
59147;SDS011;44930;52.878;6.168;2023-04-29T10:20:38;12.43;;;5.93;;
59147;SDS011;44930;52.878;6.168;2023-04-29T10:23:09;8.32;;;5.40;;
59147;SDS011;44930;52.878;6.168;2023-04-29T10:25:36;11.43;;;5.57;;
59147;SDS011;44930;52.878;6.168;2023-04-29T10:28:02;9.68;;;6.03;;
59147;SDS011;44930;52.878;6.168;2023-04-29T10:30:29;11.80;;;6.45;;
59147;SDS011;44930;52.878;6.168;2023-04-29T10:32:55;11.18;;;7.05;;
59147;SDS011;44930;52.878;6.168;2023-04-29T10:35:26;16.20;;;7.50;;
59147;SDS011;44930;52.878;6.168;2023-04-29T10:37:51;9.05;;;6.53;;
59147;SDS011;44930;52.878;6.168;2023-04-29T10:40:22;12.85;;;6.38;;
59147;SDS011;44930;52.878;6.168;2023-04-29T10:42:52;10.32;;;5.97;;
59147;SDS011;44930;52.878;6.168;2023-04-29T10:45:19;15.95;;;6.60;;
59147;SDS011;44930;52.878;6.168;2023-04-29T10:50:27;10.60;;;5.88;;
59147;SDS011;44930;52.878;6.168;2023-04-29T10:52:53;9.93;;;5.55;;
59147;SDS011;44930;52.878;6.168;2023-04-29T10:55:19;9.77;;;4.93;;
59147;SDS011;44930;52.878;6.168;2023-04-29T10:57:44;8.65;;;4.88;;
59147;SDS011;44930;52.878;6.168;2023-04-29T11:00:20;6.65;;;4.75;;
59147;SDS011;44930;52.878;6.168;2023-04-29T11:02:47;8.43;;;5.00;;
59147;SDS011;44930;52.878;6.168;2023-04-29T11:05:12;7.95;;;4.28;;
59147;SDS011;44930;52.878;6.168;2023-04-29T11:07:38;10.68;;;6.65;;
59147;SDS011;44930;52.878;6.168;2023-04-29T11:10:04;10.27;;;5.15;;
59147;SDS011;44930;52.878;6.168;2023-04-29T11:12:31;8.88;;;4.70;;
59147;SDS011;44930;52.878;6.168;2023-04-29T11:14:57;8.13;;;4.93;;
59147;SDS011;44930;52.878;6.168;2023-04-29T11:17:27;9.48;;;4.93;;
59147;SDS011;44930;52.878;6.168;2023-04-29T11:20:00;6.63;;;4.55;;
59147;SDS011;44930;52.878;6.168;2023-04-29T11:22:26;7.85;;;4.40;;
59147;SDS011;44930;52.878;6.168;2023-04-29T11:24:58;8.68;;;4.30;;
59147;SDS011;44930;52.878;6.168;2023-04-29T11:27:33;7.35;;;4.22;;
59147;SDS011;44930;52.878;6.168;2023-04-29T11:30:01;11.77;;;5.07;;
59147;SDS011;44930;52.878;6.168;2023-04-29T11:32:29;10.48;;;4.72;;
59147;SDS011;44930;52.878;6.168;2023-04-29T11:35:09;9.65;;;4.40;;
59147;SDS011;44930;52.878;6.168;2023-04-29T11:37:40;6.32;;;4.57;;
59147;SDS011;44930;52.878;6.168;2023-04-29T11:40:07;10.75;;;4.78;;
59147;SDS011;44930;52.878;6.168;2023-04-29T11:42:34;6.00;;;4.43;;
59147;SDS011;44930;52.878;6.168;2023-04-29T11:45:04;9.90;;;4.93;;
59147;SDS011;44930;52.878;6.168;2023-04-29T11:47:31;9.38;;;5.28;;
59147;SDS011;44930;52.878;6.168;2023-04-29T11:50:06;7.43;;;4.40;;
59147;SDS011;44930;52.878;6.168;2023-04-29T11:52:34;6.72;;;4.22;;
59147;SDS011;44930;52.878;6.168;2023-04-29T11:55:01;6.97;;;3.42;;
59147;SDS011;44930;52.878;6.168;2023-04-29T11:57:28;7.32;;;4.18;;
59147;SDS011;44930;52.878;6.168;2023-04-29T11:59:53;5.50;;;3.45;;
59147;SDS011;44930;52.878;6.168;2023-04-29T12:02:29;6.25;;;3.38;;
59147;SDS011;44930;52.878;6.168;2023-04-29T12:04:58;7.72;;;2.97;;
59147;SDS011;44930;52.878;6.168;2023-04-29T12:07:27;7.57;;;3.55;;
59147;SDS011;44930;52.878;6.168;2023-04-29T12:09:53;5.85;;;3.17;;
59147;SDS011;44930;52.878;6.168;2023-04-29T12:12:20;7.90;;;3.65;;
59147;SDS011;44930;52.878;6.168;2023-04-29T12:14:46;7.53;;;3.35;;
59147;SDS011;44930;52.878;6.168;2023-04-29T12:17:12;4.40;;;3.03;;
59147;SDS011;44930;52.878;6.168;2023-04-29T12:19:38;4.90;;;2.75;;
59147;SDS011;44930;52.878;6.168;2023-04-29T12:22:04;7.15;;;2.70;;
59147;SDS011;44930;52.878;6.168;2023-04-29T12:24:34;3.95;;;2.55;;
59147;SDS011;44930;52.878;6.168;2023-04-29T12:27:01;5.35;;;2.30;;
59147;SDS011;44930;52.878;6.168;2023-04-29T12:29:27;8.38;;;2.88;;
59147;SDS011;44930;52.878;6.168;2023-04-29T12:31:54;4.25;;;2.15;;
59147;SDS011;44930;52.878;6.168;2023-04-29T12:34:30;7.28;;;2.50;;
59147;SDS011;44930;52.878;6.168;2023-04-29T12:37:00;3.97;;;2.33;;
59147;SDS011;44930;52.878;6.168;2023-04-29T12:39:26;5.15;;;2.50;;
59147;SDS011;44930;52.878;6.168;2023-04-29T12:41:59;4.38;;;2.17;;
59147;SDS011;44930;52.878;6.168;2023-04-29T12:47:07;4.15;;;2.10;;
59147;SDS011;44930;52.878;6.168;2023-04-29T12:49:34;5.15;;;2.25;;
59147;SDS011;44930;52.878;6.168;2023-04-29T12:52:01;4.38;;;2.50;;
59147;SDS011;44930;52.878;6.168;2023-04-29T12:54:27;4.60;;;2.90;;
59147;SDS011;44930;52.878;6.168;2023-04-29T12:56:53;4.90;;;2.55;;
59147;SDS011;44930;52.878;6.168;2023-04-29T12:59:19;6.30;;;2.40;;
59147;SDS011;44930;52.878;6.168;2023-04-29T13:01:45;3.33;;;2.20;;
59147;SDS011;44930;52.878;6.168;2023-04-29T13:04:10;6.32;;;2.92;;
59147;SDS011;44930;52.878;6.168;2023-04-29T13:06:36;6.43;;;2.83;;
59147;SDS011;44930;52.878;6.168;2023-04-29T13:09:08;6.22;;;3.10;;
59147;SDS011;44930;52.878;6.168;2023-04-29T13:11:36;7.25;;;3.10;;
59147;SDS011;44930;52.878;6.168;2023-04-29T13:14:02;3.72;;;2.35;;
59147;SDS011;44930;52.878;6.168;2023-04-29T13:16:30;4.63;;;2.50;;
59147;SDS011;44930;52.878;6.168;2023-04-29T13:18:57;4.93;;;2.65;;
59147;SDS011;44930;52.878;6.168;2023-04-29T13:21:23;5.90;;;2.63;;
59147;SDS011;44930;52.878;6.168;2023-04-29T13:23:48;3.28;;;1.90;;
59147;SDS011;44930;52.878;6.168;2023-04-29T13:26:14;3.13;;;1.73;;
59147;SDS011;44930;52.878;6.168;2023-04-29T13:28:39;6.13;;;2.30;;
59147;SDS011;44930;52.878;6.168;2023-04-29T13:31:05;3.80;;;2.00;;
59147;SDS011;44930;52.878;6.168;2023-04-29T13:33:31;4.25;;;1.90;;
59147;SDS011;44930;52.878;6.168;2023-04-29T13:35:56;6.55;;;2.00;;
59147;SDS011;44930;52.878;6.168;2023-04-29T13:38:22;6.65;;;2.20;;
59147;SDS011;44930;52.878;6.168;2023-04-29T13:40:47;3.33;;;2.05;;
59147;SDS011;44930;52.878;6.168;2023-04-29T13:43:13;3.70;;;2.00;;
59147;SDS011;44930;52.878;6.168;2023-04-29T13:45:38;3.72;;;1.92;;
59147;SDS011;44930;52.878;6.168;2023-04-29T13:48:04;3.67;;;1.83;;
59147;SDS011;44930;52.878;6.168;2023-04-29T13:50:30;4.78;;;1.55;;
59147;SDS011;44930;52.878;6.168;2023-04-29T13:52:55;3.80;;;1.70;;
59147;SDS011;44930;52.878;6.168;2023-04-29T13:55:21;5.45;;;2.10;;
59147;SDS011;44930;52.878;6.168;2023-04-29T13:57:47;4.20;;;2.10;;
59147;SDS011;44930;52.878;6.168;2023-04-29T14:00:13;4.25;;;1.63;;
59147;SDS011;44930;52.878;6.168;2023-04-29T14:02:39;5.78;;;1.95;;
59147;SDS011;44930;52.878;6.168;2023-04-29T14:05:05;2.33;;;1.45;;
59147;SDS011;44930;52.878;6.168;2023-04-29T14:07:31;2.08;;;1.33;;
59147;SDS011;44930;52.878;6.168;2023-04-29T14:09:56;7.28;;;1.58;;
59147;SDS011;44930;52.878;6.168;2023-04-29T14:12:22;4.50;;;1.50;;
59147;SDS011;44930;52.878;6.168;2023-04-29T14:14:47;4.28;;;1.55;;
59147;SDS011;44930;52.878;6.168;2023-04-29T14:17:13;4.47;;;1.40;;
59147;SDS011;44930;52.878;6.168;2023-04-29T14:19:38;2.97;;;1.90;;
59147;SDS011;44930;52.878;6.168;2023-04-29T14:22:04;3.72;;;1.90;;
59147;SDS011;44930;52.878;6.168;2023-04-29T14:24:30;2.60;;;1.85;;
59147;SDS011;44930;52.878;6.168;2023-04-29T14:26:56;4.13;;;2.10;;
59147;SDS011;44930;52.878;6.168;2023-04-29T14:29:21;3.55;;;1.75;;
59147;SDS011;44930;52.878;6.168;2023-04-29T14:31:47;3.95;;;1.50;;
59147;SDS011;44930;52.878;6.168;2023-04-29T14:34:13;3.13;;;1.80;;
59147;SDS011;44930;52.878;6.168;2023-04-29T14:36:38;3.30;;;2.00;;
59147;SDS011;44930;52.878;6.168;2023-04-29T14:39:05;4.95;;;1.80;;
59147;SDS011;44930;52.878;6.168;2023-04-29T14:41:30;3.22;;;1.80;;
59147;SDS011;44930;52.878;6.168;2023-04-29T14:43:56;5.63;;;2.10;;
59147;SDS011;44930;52.878;6.168;2023-04-29T14:46:21;2.90;;;2.00;;
59147;SDS011;44930;52.878;6.168;2023-04-29T14:48:47;8.73;;;2.63;;
59147;SDS011;44930;52.878;6.168;2023-04-29T14:51:13;4.07;;;2.20;;
59147;SDS011;44930;52.878;6.168;2023-04-29T14:53:39;5.07;;;2.00;;
59147;SDS011;44930;52.878;6.168;2023-04-29T14:56:04;2.60;;;1.98;;